sensor_id;sensor_type;location;lat;lon;timestamp;P1;durP1;ratioP1;P2;durP2;ratioP2
10452;SDS011;5274;51.992;8.518;2022-08-19T00:00:36;10.85;;;6.63;;
10452;SDS011;5274;51.992;8.518;2022-08-19T00:03:02;10.77;;;6.50;;
10452;SDS011;5274;51.992;8.518;2022-08-19T00:05:28;9.00;;;5.97;;
10452;SDS011;5274;51.992;8.518;2022-08-19T00:07:54;8.95;;;6.00;;
10452;SDS011;5274;51.992;8.518;2022-08-19T00:10:19;13.45;;;7.32;;
10452;SDS011;5274;51.992;8.518;2022-08-19T00:12:46;8.80;;;6.43;;
10452;SDS011;5274;51.992;8.518;2022-08-19T00:15:14;8.23;;;6.65;;
10452;SDS011;5274;51.992;8.518;2022-08-19T00:17:42;14.30;;;7.00;;
10452;SDS011;5274;51.992;8.518;2022-08-19T00:20:09;10.45;;;7.28;;
10452;SDS011;5274;51.992;8.518;2022-08-19T00:22:37;10.05;;;6.60;;
10452;SDS011;5274;51.992;8.518;2022-08-19T00:25:04;11.55;;;7.07;;
10452;SDS011;5274;51.992;8.518;2022-08-19T00:27:30;9.50;;;6.38;;
10452;SDS011;5274;51.992;8.518;2022-08-19T00:29:56;11.90;;;6.90;;
10452;SDS011;5274;51.992;8.518;2022-08-19T00:32:23;13.10;;;7.38;;
10452;SDS011;5274;51.992;8.518;2022-08-19T00:34:50;16.40;;;7.68;;
10452;SDS011;5274;51.992;8.518;2022-08-19T00:37:17;12.75;;;6.68;;
10452;SDS011;5274;51.992;8.518;2022-08-19T00:39:44;9.82;;;7.30;;
10452;SDS011;5274;51.992;8.518;2022-08-19T00:42:09;11.45;;;7.22;;
10452;SDS011;5274;51.992;8.518;2022-08-19T00:44:35;10.45;;;7.40;;
10452;SDS011;5274;51.992;8.518;2022-08-19T00:47:00;12.52;;;7.30;;
10452;SDS011;5274;51.992;8.518;2022-08-19T00:49:30;10.43;;;7.35;;
10452;SDS011;5274;51.992;8.518;2022-08-19T00:52:12;10.93;;;7.18;;
10452;SDS011;5274;51.992;8.518;2022-08-19T00:54:39;12.70;;;8.23;;
10452;SDS011;5274;51.992;8.518;2022-08-19T00:57:09;11.55;;;7.80;;
10452;SDS011;5274;51.992;8.518;2022-08-19T00:59:38;10.75;;;6.85;;
10452;SDS011;5274;51.992;8.518;2022-08-19T01:02:05;12.77;;;8.82;;
10452;SDS011;5274;51.992;8.518;2022-08-19T01:04:31;12.52;;;7.88;;
10452;SDS011;5274;51.992;8.518;2022-08-19T01:06:57;10.55;;;7.57;;
10452;SDS011;5274;51.992;8.518;2022-08-19T01:09:24;16.30;;;8.20;;
10452;SDS011;5274;51.992;8.518;2022-08-19T01:11:49;12.15;;;8.10;;
10452;SDS011;5274;51.992;8.518;2022-08-19T01:14:16;10.95;;;8.20;;
10452;SDS011;5274;51.992;8.518;2022-08-19T01:16:41;9.98;;;8.32;;
10452;SDS011;5274;51.992;8.518;2022-08-19T01:19:12;13.52;;;8.88;;
10452;SDS011;5274;51.992;8.518;2022-08-19T01:21:45;15.73;;;9.30;;
10452;SDS011;5274;51.992;8.518;2022-08-19T01:24:16;14.02;;;8.80;;
10452;SDS011;5274;51.992;8.518;2022-08-19T01:26:43;18.85;;;9.45;;
10452;SDS011;5274;51.992;8.518;2022-08-19T01:29:10;13.20;;;8.48;;
10452;SDS011;5274;51.992;8.518;2022-08-19T01:31:36;12.60;;;8.63;;
10452;SDS011;5274;51.992;8.518;2022-08-19T01:34:04;12.45;;;8.63;;
10452;SDS011;5274;51.992;8.518;2022-08-19T01:38:57;12.63;;;8.55;;
10452;SDS011;5274;51.992;8.518;2022-08-19T01:41:24;15.13;;;9.38;;
10452;SDS011;5274;51.992;8.518;2022-08-19T01:43:50;14.18;;;9.77;;
10452;SDS011;5274;51.992;8.518;2022-08-19T01:46:17;20.95;;;10.65;;
10452;SDS011;5274;51.992;8.518;2022-08-19T01:48:43;13.90;;;9.70;;
10452;SDS011;5274;51.992;8.518;2022-08-19T01:51:09;19.60;;;10.30;;
10452;SDS011;5274;51.992;8.518;2022-08-19T01:53:36;17.65;;;10.60;;
10452;SDS011;5274;51.992;8.518;2022-08-19T01:56:02;15.98;;;10.77;;
10452;SDS011;5274;51.992;8.518;2022-08-19T01:58:30;19.05;;;10.07;;
10452;SDS011;5274;51.992;8.518;2022-08-19T02:01:01;15.93;;;9.80;;
10452;SDS011;5274;51.992;8.518;2022-08-19T02:03:28;12.52;;;8.60;;
10452;SDS011;5274;51.992;8.518;2022-08-19T02:05:57;21.02;;;11.27;;
10452;SDS011;5274;51.992;8.518;2022-08-19T02:08:24;17.98;;;11.20;;
10452;SDS011;5274;51.992;8.518;2022-08-19T02:10:50;16.15;;;10.82;;
10452;SDS011;5274;51.992;8.518;2022-08-19T02:13:16;17.27;;;9.90;;
10452;SDS011;5274;51.992;8.518;2022-08-19T02:15:42;17.38;;;10.32;;
10452;SDS011;5274;51.992;8.518;2022-08-19T02:18:07;15.32;;;10.90;;
10452;SDS011;5274;51.992;8.518;2022-08-19T02:20:33;17.98;;;10.07;;
10452;SDS011;5274;51.992;8.518;2022-08-19T02:23:00;18.92;;;10.90;;
10452;SDS011;5274;51.992;8.518;2022-08-19T02:25:26;19.13;;;11.77;;
10452;SDS011;5274;51.992;8.518;2022-08-19T02:27:51;18.70;;;10.98;;
10452;SDS011;5274;51.992;8.518;2022-08-19T02:30:17;17.67;;;9.70;;
10452;SDS011;5274;51.992;8.518;2022-08-19T02:32:43;17.13;;;10.38;;
10452;SDS011;5274;51.992;8.518;2022-08-19T02:35:09;18.08;;;10.77;;
10452;SDS011;5274;51.992;8.518;2022-08-19T02:37:35;15.90;;;10.93;;
10452;SDS011;5274;51.992;8.518;2022-08-19T02:40:19;20.73;;;11.00;;
10452;SDS011;5274;51.992;8.518;2022-08-19T02:42:45;18.73;;;11.35;;
10452;SDS011;5274;51.992;8.518;2022-08-19T02:45:11;19.40;;;11.25;;
10452;SDS011;5274;51.992;8.518;2022-08-19T02:47:38;15.27;;;10.10;;
10452;SDS011;5274;51.992;8.518;2022-08-19T02:50:04;20.30;;;11.95;;
10452;SDS011;5274;51.992;8.518;2022-08-19T02:52:31;16.85;;;10.70;;
10452;SDS011;5274;51.992;8.518;2022-08-19T02:54:57;15.52;;;10.77;;
10452;SDS011;5274;51.992;8.518;2022-08-19T02:57:23;14.00;;;10.57;;
10452;SDS011;5274;51.992;8.518;2022-08-19T02:59:49;19.60;;;10.95;;
10452;SDS011;5274;51.992;8.518;2022-08-19T03:02:14;18.60;;;10.18;;
10452;SDS011;5274;51.992;8.518;2022-08-19T03:04:40;13.93;;;10.00;;
10452;SDS011;5274;51.992;8.518;2022-08-19T03:07:07;14.88;;;11.48;;
10452;SDS011;5274;51.992;8.518;2022-08-19T03:09:33;18.35;;;11.40;;
10452;SDS011;5274;51.992;8.518;2022-08-19T03:12:02;18.13;;;11.05;;
10452;SDS011;5274;51.992;8.518;2022-08-19T03:14:35;17.20;;;10.95;;
10452;SDS011;5274;51.992;8.518;2022-08-19T03:17:02;23.60;;;11.88;;
10452;SDS011;5274;51.992;8.518;2022-08-19T03:19:29;19.70;;;12.02;;
10452;SDS011;5274;51.992;8.518;2022-08-19T03:21:56;21.95;;;12.77;;
10452;SDS011;5274;51.992;8.518;2022-08-19T03:24:21;18.00;;;11.10;;
10452;SDS011;5274;51.992;8.518;2022-08-19T03:26:48;16.50;;;10.23;;
10452;SDS011;5274;51.992;8.518;2022-08-19T03:29:17;18.95;;;11.02;;
10452;SDS011;5274;51.992;8.518;2022-08-19T03:31:43;15.80;;;10.13;;
10452;SDS011;5274;51.992;8.518;2022-08-19T03:34:14;16.20;;;10.05;;
10452;SDS011;5274;51.992;8.518;2022-08-19T03:36:47;14.18;;;10.00;;
10452;SDS011;5274;51.992;8.518;2022-08-19T03:39:13;15.05;;;11.48;;
10452;SDS011;5274;51.992;8.518;2022-08-19T03:41:40;16.85;;;10.68;;
10452;SDS011;5274;51.992;8.518;2022-08-19T03:44:07;15.20;;;9.85;;
10452;SDS011;5274;51.992;8.518;2022-08-19T03:46:33;16.15;;;10.20;;
10452;SDS011;5274;51.992;8.518;2022-08-19T03:49:00;21.98;;;10.68;;
10452;SDS011;5274;51.992;8.518;2022-08-19T03:51:33;16.08;;;10.43;;
10452;SDS011;5274;51.992;8.518;2022-08-19T03:54:01;16.98;;;10.32;;
10452;SDS011;5274;51.992;8.518;2022-08-19T03:56:29;19.23;;;10.75;;
10452;SDS011;5274;51.992;8.518;2022-08-19T03:58:56;16.85;;;11.00;;
10452;SDS011;5274;51.992;8.518;2022-08-19T04:01:23;19.25;;;11.38;;
10452;SDS011;5274;51.992;8.518;2022-08-19T04:03:54;17.80;;;11.40;;
10452;SDS011;5274;51.992;8.518;2022-08-19T04:06:28;17.25;;;11.27;;
10452;SDS011;5274;51.992;8.518;2022-08-19T04:08:56;16.08;;;10.68;;
10452;SDS011;5274;51.992;8.518;2022-08-19T04:11:46;19.33;;;11.07;;
10452;SDS011;5274;51.992;8.518;2022-08-19T04:14:15;16.40;;;10.77;;
10452;SDS011;5274;51.992;8.518;2022-08-19T04:16:43;15.95;;;10.35;;
10452;SDS011;5274;51.992;8.518;2022-08-19T04:19:10;16.58;;;11.02;;
10452;SDS011;5274;51.992;8.518;2022-08-19T04:21:36;15.43;;;10.95;;
10452;SDS011;5274;51.992;8.518;2022-08-19T04:24:02;18.80;;;11.48;;
10452;SDS011;5274;51.992;8.518;2022-08-19T04:26:29;17.23;;;10.52;;
10452;SDS011;5274;51.992;8.518;2022-08-19T04:28:58;15.40;;;10.80;;
10452;SDS011;5274;51.992;8.518;2022-08-19T04:31:26;20.45;;;11.27;;
10452;SDS011;5274;51.992;8.518;2022-08-19T04:33:54;18.48;;;11.73;;
10452;SDS011;5274;51.992;8.518;2022-08-19T04:36:23;17.58;;;11.88;;
10452;SDS011;5274;51.992;8.518;2022-08-19T04:38:53;18.48;;;11.23;;
10452;SDS011;5274;51.992;8.518;2022-08-19T04:41:20;19.58;;;11.20;;
10452;SDS011;5274;51.992;8.518;2022-08-19T04:44:04;17.38;;;10.93;;
10452;SDS011;5274;51.992;8.518;2022-08-19T04:46:30;17.70;;;11.32;;
10452;SDS011;5274;51.992;8.518;2022-08-19T04:48:57;26.10;;;12.90;;
10452;SDS011;5274;51.992;8.518;2022-08-19T04:51:23;17.30;;;10.85;;
10452;SDS011;5274;51.992;8.518;2022-08-19T04:53:49;18.80;;;11.38;;
10452;SDS011;5274;51.992;8.518;2022-08-19T04:56:16;19.05;;;10.88;;
10452;SDS011;5274;51.992;8.518;2022-08-19T04:58:44;18.75;;;11.30;;
10452;SDS011;5274;51.992;8.518;2022-08-19T05:01:13;18.80;;;11.52;;
10452;SDS011;5274;51.992;8.518;2022-08-19T05:03:42;15.98;;;11.35;;
10452;SDS011;5274;51.992;8.518;2022-08-19T05:06:09;23.13;;;11.52;;
10452;SDS011;5274;51.992;8.518;2022-08-19T05:08:37;22.17;;;13.27;;
10452;SDS011;5274;51.992;8.518;2022-08-19T05:11:15;19.17;;;11.90;;
10452;SDS011;5274;51.992;8.518;2022-08-19T05:13:43;19.58;;;11.82;;
10452;SDS011;5274;51.992;8.518;2022-08-19T05:16:10;18.45;;;12.05;;
10452;SDS011;5274;51.992;8.518;2022-08-19T05:18:36;24.48;;;12.88;;
10452;SDS011;5274;51.992;8.518;2022-08-19T05:21:21;22.02;;;12.15;;
10452;SDS011;5274;51.992;8.518;2022-08-19T05:24:06;23.38;;;13.43;;
10452;SDS011;5274;51.992;8.518;2022-08-19T05:26:33;28.45;;;13.57;;
10452;SDS011;5274;51.992;8.518;2022-08-19T05:29:03;19.23;;;11.68;;
10452;SDS011;5274;51.992;8.518;2022-08-19T05:31:29;18.83;;;12.10;;
10452;SDS011;5274;51.992;8.518;2022-08-19T05:33:55;21.95;;;13.07;;
10452;SDS011;5274;51.992;8.518;2022-08-19T05:36:23;24.83;;;13.38;;
10452;SDS011;5274;51.992;8.518;2022-08-19T05:38:52;22.00;;;13.52;;
10452;SDS011;5274;51.992;8.518;2022-08-19T05:41:19;24.15;;;13.82;;
10452;SDS011;5274;51.992;8.518;2022-08-19T05:43:46;21.40;;;13.07;;
10452;SDS011;5274;51.992;8.518;2022-08-19T05:46:18;24.58;;;14.57;;
10452;SDS011;5274;51.992;8.518;2022-08-19T05:48:44;24.48;;;14.73;;
10452;SDS011;5274;51.992;8.518;2022-08-19T05:51:10;22.02;;;13.13;;
10452;SDS011;5274;51.992;8.518;2022-08-19T05:53:36;22.73;;;12.93;;
10452;SDS011;5274;51.992;8.518;2022-08-19T05:56:09;26.05;;;14.98;;
10452;SDS011;5274;51.992;8.518;2022-08-19T05:58:36;21.95;;;12.93;;
10452;SDS011;5274;51.992;8.518;2022-08-19T06:01:09;21.90;;;13.63;;
10452;SDS011;5274;51.992;8.518;2022-08-19T06:03:36;21.02;;;13.32;;
10452;SDS011;5274;51.992;8.518;2022-08-19T06:06:02;20.23;;;13.13;;
10452;SDS011;5274;51.992;8.518;2022-08-19T06:08:30;30.80;;;13.55;;
10452;SDS011;5274;51.992;8.518;2022-08-19T06:10:56;23.38;;;14.20;;
10452;SDS011;5274;51.992;8.518;2022-08-19T06:13:21;21.25;;;13.55;;
10452;SDS011;5274;51.992;8.518;2022-08-19T06:15:48;22.35;;;13.23;;
10452;SDS011;5274;51.992;8.518;2022-08-19T06:18:14;23.17;;;12.98;;
10452;SDS011;5274;51.992;8.518;2022-08-19T06:20:40;24.30;;;12.95;;
10452;SDS011;5274;51.992;8.518;2022-08-19T06:23:06;20.80;;;12.27;;
10452;SDS011;5274;51.992;8.518;2022-08-19T06:25:31;24.02;;;12.60;;
10452;SDS011;5274;51.992;8.518;2022-08-19T06:27:57;22.45;;;12.20;;
10452;SDS011;5274;51.992;8.518;2022-08-19T06:30:22;18.58;;;12.02;;
10452;SDS011;5274;51.992;8.518;2022-08-19T06:32:48;17.52;;;11.48;;
10452;SDS011;5274;51.992;8.518;2022-08-19T06:35:13;20.63;;;12.07;;
10452;SDS011;5274;51.992;8.518;2022-08-19T06:37:39;19.70;;;11.55;;
10452;SDS011;5274;51.992;8.518;2022-08-19T06:40:06;17.95;;;11.38;;
10452;SDS011;5274;51.992;8.518;2022-08-19T06:42:33;17.10;;;11.10;;
10452;SDS011;5274;51.992;8.518;2022-08-19T06:45:00;16.27;;;9.85;;
10452;SDS011;5274;51.992;8.518;2022-08-19T06:47:28;16.25;;;10.40;;
10452;SDS011;5274;51.992;8.518;2022-08-19T06:49:54;14.55;;;9.50;;
10452;SDS011;5274;51.992;8.518;2022-08-19T06:52:26;18.20;;;9.30;;
10452;SDS011;5274;51.992;8.518;2022-08-19T06:54:52;13.50;;;9.30;;
10452;SDS011;5274;51.992;8.518;2022-08-19T06:57:20;14.52;;;8.98;;
10452;SDS011;5274;51.992;8.518;2022-08-19T06:59:45;14.43;;;9.50;;
10452;SDS011;5274;51.992;8.518;2022-08-19T07:02:11;12.30;;;9.13;;
10452;SDS011;5274;51.992;8.518;2022-08-19T07:04:36;10.07;;;7.00;;
10452;SDS011;5274;51.992;8.518;2022-08-19T07:07:11;8.90;;;6.32;;
10452;SDS011;5274;51.992;8.518;2022-08-19T07:09:39;13.68;;;7.68;;
10452;SDS011;5274;51.992;8.518;2022-08-19T07:12:07;9.98;;;7.00;;
10452;SDS011;5274;51.992;8.518;2022-08-19T07:14:35;12.32;;;6.80;;
10452;SDS011;5274;51.992;8.518;2022-08-19T07:17:03;9.38;;;7.03;;
10452;SDS011;5274;51.992;8.518;2022-08-19T07:19:30;12.07;;;6.32;;
10452;SDS011;5274;51.992;8.518;2022-08-19T07:21:56;9.63;;;6.68;;
10452;SDS011;5274;51.992;8.518;2022-08-19T07:24:24;9.50;;;5.32;;
10452;SDS011;5274;51.992;8.518;2022-08-19T07:26:52;9.75;;;5.35;;
10452;SDS011;5274;51.992;8.518;2022-08-19T07:29:20;8.27;;;6.57;;
10452;SDS011;5274;51.992;8.518;2022-08-19T07:31:47;8.00;;;5.72;;
10452;SDS011;5274;51.992;8.518;2022-08-19T07:34:14;7.40;;;5.85;;
10452;SDS011;5274;51.992;8.518;2022-08-19T07:36:41;6.63;;;5.25;;
10452;SDS011;5274;51.992;8.518;2022-08-19T07:39:08;8.05;;;5.28;;
10452;SDS011;5274;51.992;8.518;2022-08-19T07:41:41;7.35;;;5.20;;
10452;SDS011;5274;51.992;8.518;2022-08-19T07:44:08;7.93;;;5.60;;
10452;SDS011;5274;51.992;8.518;2022-08-19T07:46:35;6.00;;;4.55;;
10452;SDS011;5274;51.992;8.518;2022-08-19T07:49:03;9.32;;;4.97;;
10452;SDS011;5274;51.992;8.518;2022-08-19T07:51:30;7.40;;;4.45;;
10452;SDS011;5274;51.992;8.518;2022-08-19T07:53:56;6.30;;;4.53;;
10452;SDS011;5274;51.992;8.518;2022-08-19T07:56:22;28.35;;;7.03;;
10452;SDS011;5274;51.992;8.518;2022-08-19T07:58:48;8.35;;;4.72;;
10452;SDS011;5274;51.992;8.518;2022-08-19T08:01:17;8.40;;;5.15;;
10452;SDS011;5274;51.992;8.518;2022-08-19T08:03:47;7.47;;;4.40;;
10452;SDS011;5274;51.992;8.518;2022-08-19T08:06:32;6.30;;;5.35;;
10452;SDS011;5274;51.992;8.518;2022-08-19T08:09:19;7.00;;;4.60;;
10452;SDS011;5274;51.992;8.518;2022-08-19T08:11:50;7.40;;;5.45;;
10452;SDS011;5274;51.992;8.518;2022-08-19T08:14:22;7.03;;;5.35;;
10452;SDS011;5274;51.992;8.518;2022-08-19T08:16:50;6.57;;;5.30;;
10452;SDS011;5274;51.992;8.518;2022-08-19T08:19:17;7.70;;;5.07;;
10452;SDS011;5274;51.992;8.518;2022-08-19T08:21:44;6.93;;;4.57;;
10452;SDS011;5274;51.992;8.518;2022-08-19T08:24:10;9.38;;;5.00;;
10452;SDS011;5274;51.992;8.518;2022-08-19T08:26:36;5.68;;;5.07;;
10452;SDS011;5274;51.992;8.518;2022-08-19T08:29:02;7.57;;;4.45;;
10452;SDS011;5274;51.992;8.518;2022-08-19T08:31:28;5.95;;;5.30;;
10452;SDS011;5274;51.992;8.518;2022-08-19T08:33:54;10.70;;;6.03;;
10452;SDS011;5274;51.992;8.518;2022-08-19T08:36:19;7.78;;;5.72;;
10452;SDS011;5274;51.992;8.518;2022-08-19T08:38:45;5.10;;;4.25;;
10452;SDS011;5274;51.992;8.518;2022-08-19T08:43:55;6.35;;;5.25;;
10452;SDS011;5274;51.992;8.518;2022-08-19T08:49:15;5.50;;;4.97;;
10452;SDS011;5274;51.992;8.518;2022-08-19T08:55:00;7.30;;;4.68;;
10452;SDS011;5274;51.992;8.518;2022-08-19T08:57:36;7.25;;;4.13;;
10452;SDS011;5274;51.992;8.518;2022-08-19T09:00:10;5.00;;;3.80;;
10452;SDS011;5274;51.992;8.518;2022-08-19T09:02:39;5.25;;;4.00;;
10452;SDS011;5274;51.992;8.518;2022-08-19T09:05:05;8.10;;;4.05;;
10452;SDS011;5274;51.992;8.518;2022-08-19T09:13:15;5.57;;;3.90;;
10452;SDS011;5274;51.992;8.518;2022-08-19T09:16:05;5.60;;;3.85;;
10452;SDS011;5274;51.992;8.518;2022-08-19T09:18:43;4.72;;;4.22;;
10452;SDS011;5274;51.992;8.518;2022-08-19T09:21:08;8.18;;;4.28;;
10452;SDS011;5274;51.992;8.518;2022-08-19T09:23:35;4.60;;;4.10;;
10452;SDS011;5274;51.992;8.518;2022-08-19T09:26:05;3.95;;;3.53;;
10452;SDS011;5274;51.992;8.518;2022-08-19T09:28:33;5.03;;;3.80;;
10452;SDS011;5274;51.992;8.518;2022-08-19T09:30:59;6.30;;;3.67;;
10452;SDS011;5274;51.992;8.518;2022-08-19T09:33:24;4.63;;;3.03;;
10452;SDS011;5274;51.992;8.518;2022-08-19T09:35:50;3.33;;;3.03;;
10452;SDS011;5274;51.992;8.518;2022-08-19T09:38:15;5.95;;;3.22;;
10452;SDS011;5274;51.992;8.518;2022-08-19T09:40:41;4.00;;;3.17;;
10452;SDS011;5274;51.992;8.518;2022-08-19T09:43:06;4.68;;;3.72;;
10452;SDS011;5274;51.992;8.518;2022-08-19T09:45:33;3.30;;;3.00;;
10452;SDS011;5274;51.992;8.518;2022-08-19T09:47:58;6.05;;;4.30;;
10452;SDS011;5274;51.992;8.518;2022-08-19T09:50:24;5.78;;;3.20;;
10452;SDS011;5274;51.992;8.518;2022-08-19T09:52:49;5.10;;;3.50;;
10452;SDS011;5274;51.992;8.518;2022-08-19T09:55:17;4.90;;;3.47;;
10452;SDS011;5274;51.992;8.518;2022-08-19T09:57:42;7.38;;;3.38;;
10452;SDS011;5274;51.992;8.518;2022-08-19T10:00:08;3.70;;;3.20;;
10452;SDS011;5274;51.992;8.518;2022-08-19T10:02:35;3.83;;;3.50;;
10452;SDS011;5274;51.992;8.518;2022-08-19T10:05:01;4.57;;;3.20;;
10452;SDS011;5274;51.992;8.518;2022-08-19T10:07:45;4.65;;;3.25;;
10452;SDS011;5274;51.992;8.518;2022-08-19T10:10:10;3.60;;;3.15;;
10452;SDS011;5274;51.992;8.518;2022-08-19T10:12:36;4.43;;;3.20;;
10452;SDS011;5274;51.992;8.518;2022-08-19T10:15:02;7.68;;;2.90;;
10452;SDS011;5274;51.992;8.518;2022-08-19T10:17:29;3.95;;;3.20;;
10452;SDS011;5274;51.992;8.518;2022-08-19T10:19:55;3.47;;;2.83;;
10452;SDS011;5274;51.992;8.518;2022-08-19T10:22:20;4.43;;;3.40;;
10452;SDS011;5274;51.992;8.518;2022-08-19T10:24:46;5.00;;;3.22;;
10452;SDS011;5274;51.992;8.518;2022-08-19T10:27:11;5.20;;;3.13;;
10452;SDS011;5274;51.992;8.518;2022-08-19T10:29:38;4.55;;;3.35;;
10452;SDS011;5274;51.992;8.518;2022-08-19T10:32:05;4.25;;;3.13;;
10452;SDS011;5274;51.992;8.518;2022-08-19T10:34:33;7.43;;;3.70;;
10452;SDS011;5274;51.992;8.518;2022-08-19T10:37:00;3.70;;;3.38;;
10452;SDS011;5274;51.992;8.518;2022-08-19T10:39:26;5.53;;;2.60;;
10452;SDS011;5274;51.992;8.518;2022-08-19T10:41:56;2.70;;;2.50;;
10452;SDS011;5274;51.992;8.518;2022-08-19T10:44:22;2.88;;;2.25;;
10452;SDS011;5274;51.992;8.518;2022-08-19T10:46:49;3.90;;;2.15;;
10452;SDS011;5274;51.992;8.518;2022-08-19T10:49:16;2.80;;;2.42;;
10452;SDS011;5274;51.992;8.518;2022-08-19T10:51:43;6.15;;;2.50;;
10452;SDS011;5274;51.992;8.518;2022-08-19T10:54:28;2.40;;;2.20;;
10452;SDS011;5274;51.992;8.518;2022-08-19T10:57:12;2.85;;;2.63;;
10452;SDS011;5274;51.992;8.518;2022-08-19T10:59:38;4.45;;;2.90;;
10452;SDS011;5274;51.992;8.518;2022-08-19T11:02:10;3.38;;;2.58;;
10452;SDS011;5274;51.992;8.518;2022-08-19T11:04:37;3.05;;;2.65;;
10452;SDS011;5274;51.992;8.518;2022-08-19T11:07:04;4.15;;;2.70;;
10452;SDS011;5274;51.992;8.518;2022-08-19T11:09:30;3.42;;;2.50;;
10452;SDS011;5274;51.992;8.518;2022-08-19T11:11:56;3.95;;;2.70;;
10452;SDS011;5274;51.992;8.518;2022-08-19T11:14:22;4.32;;;2.75;;
10452;SDS011;5274;51.992;8.518;2022-08-19T11:16:50;3.22;;;2.92;;
10452;SDS011;5274;51.992;8.518;2022-08-19T11:19:17;4.68;;;2.90;;
10452;SDS011;5274;51.992;8.518;2022-08-19T11:21:45;5.20;;;3.10;;
10452;SDS011;5274;51.992;8.518;2022-08-19T11:24:14;3.78;;;2.50;;
10452;SDS011;5274;51.992;8.518;2022-08-19T11:26:45;3.03;;;2.63;;
10452;SDS011;5274;51.992;8.518;2022-08-19T11:29:13;4.18;;;2.70;;
10452;SDS011;5274;51.992;8.518;2022-08-19T11:31:40;2.72;;;2.10;;
10452;SDS011;5274;51.992;8.518;2022-08-19T11:34:08;3.13;;;2.30;;
10452;SDS011;5274;51.992;8.518;2022-08-19T11:36:42;4.60;;;2.63;;
10452;SDS011;5274;51.992;8.518;2022-08-19T11:39:10;2.70;;;2.50;;
10452;SDS011;5274;51.992;8.518;2022-08-19T11:41:36;7.32;;;2.30;;
10452;SDS011;5274;51.992;8.518;2022-08-19T11:44:02;4.10;;;2.25;;
10452;SDS011;5274;51.992;8.518;2022-08-19T11:46:29;3.15;;;2.35;;
10452;SDS011;5274;51.992;8.518;2022-08-19T11:48:56;3.40;;;2.05;;
10452;SDS011;5274;51.992;8.518;2022-08-19T11:51:22;2.50;;;2.30;;
10452;SDS011;5274;51.992;8.518;2022-08-19T11:53:55;2.83;;;1.95;;
10452;SDS011;5274;51.992;8.518;2022-08-19T11:56:22;3.90;;;2.47;;
10452;SDS011;5274;51.992;8.518;2022-08-19T11:58:49;2.28;;;2.00;;
10452;SDS011;5274;51.992;8.518;2022-08-19T12:01:16;2.38;;;2.17;;
10452;SDS011;5274;51.992;8.518;2022-08-19T12:03:44;2.30;;;2.10;;
10452;SDS011;5274;51.992;8.518;2022-08-19T12:06:13;4.47;;;2.20;;
10452;SDS011;5274;51.992;8.518;2022-08-19T12:08:41;4.50;;;2.00;;
10452;SDS011;5274;51.992;8.518;2022-08-19T12:11:08;2.78;;;2.20;;
10452;SDS011;5274;51.992;8.518;2022-08-19T12:13:34;2.22;;;2.03;;
10452;SDS011;5274;51.992;8.518;2022-08-19T12:16:05;3.03;;;2.00;;
10452;SDS011;5274;51.992;8.518;2022-08-19T12:18:37;2.17;;;2.03;;
10452;SDS011;5274;51.992;8.518;2022-08-19T12:21:11;2.05;;;1.70;;
10452;SDS011;5274;51.992;8.518;2022-08-19T12:23:39;3.05;;;1.90;;
10452;SDS011;5274;51.992;8.518;2022-08-19T12:26:05;4.53;;;2.00;;
10452;SDS011;5274;51.992;8.518;2022-08-19T12:28:31;1.90;;;1.80;;
10452;SDS011;5274;51.992;8.518;2022-08-19T12:30:56;2.40;;;1.60;;
10452;SDS011;5274;51.992;8.518;2022-08-19T12:33:22;2.95;;;2.65;;
10452;SDS011;5274;51.992;8.518;2022-08-19T12:35:51;3.45;;;1.77;;
10452;SDS011;5274;51.992;8.518;2022-08-19T12:38:17;4.75;;;2.33;;
10452;SDS011;5274;51.992;8.518;2022-08-19T12:40:46;3.20;;;2.42;;
10452;SDS011;5274;51.992;8.518;2022-08-19T12:43:13;2.35;;;2.15;;
10452;SDS011;5274;51.992;8.518;2022-08-19T12:45:40;3.40;;;2.00;;
10452;SDS011;5274;51.992;8.518;2022-08-19T12:48:07;2.05;;;1.90;;
10452;SDS011;5274;51.992;8.518;2022-08-19T12:50:33;2.35;;;2.17;;
10452;SDS011;5274;51.992;8.518;2022-08-19T12:52:59;3.30;;;1.85;;
10452;SDS011;5274;51.992;8.518;2022-08-19T12:55:24;2.47;;;2.17;;
10452;SDS011;5274;51.992;8.518;2022-08-19T12:57:53;2.13;;;1.92;;
10452;SDS011;5274;51.992;8.518;2022-08-19T13:00:20;3.25;;;2.55;;
10452;SDS011;5274;51.992;8.518;2022-08-19T13:02:47;2.40;;;2.20;;
10452;SDS011;5274;51.992;8.518;2022-08-19T13:05:19;3.78;;;2.42;;
10452;SDS011;5274;51.992;8.518;2022-08-19T13:07:47;2.88;;;2.58;;
10452;SDS011;5274;51.992;8.518;2022-08-19T13:10:15;2.50;;;2.30;;
10452;SDS011;5274;51.992;8.518;2022-08-19T13:12:42;3.42;;;2.03;;
10452;SDS011;5274;51.992;8.518;2022-08-19T13:15:09;3.30;;;2.47;;
10452;SDS011;5274;51.992;8.518;2022-08-19T13:17:35;3.03;;;2.05;;
10452;SDS011;5274;51.992;8.518;2022-08-19T13:20:01;2.05;;;1.85;;
10452;SDS011;5274;51.992;8.518;2022-08-19T13:22:27;2.13;;;1.95;;
10452;SDS011;5274;51.992;8.518;2022-08-19T13:24:53;2.35;;;2.00;;
10452;SDS011;5274;51.992;8.518;2022-08-19T13:27:18;5.40;;;2.35;;
10452;SDS011;5274;51.992;8.518;2022-08-19T13:29:44;4.93;;;2.20;;
10452;SDS011;5274;51.992;8.518;2022-08-19T13:32:28;5.43;;;2.40;;
10452;SDS011;5274;51.992;8.518;2022-08-19T13:35:13;5.03;;;2.67;;
10452;SDS011;5274;51.992;8.518;2022-08-19T13:37:40;2.28;;;2.08;;
10452;SDS011;5274;51.992;8.518;2022-08-19T13:40:10;2.08;;;1.80;;
10452;SDS011;5274;51.992;8.518;2022-08-19T13:42:38;3.75;;;2.67;;
10452;SDS011;5274;51.992;8.518;2022-08-19T13:45:04;2.13;;;2.00;;
10452;SDS011;5274;51.992;8.518;2022-08-19T13:47:31;3.95;;;2.10;;
10452;SDS011;5274;51.992;8.518;2022-08-19T13:49:59;2.40;;;2.20;;
10452;SDS011;5274;51.992;8.518;2022-08-19T13:52:25;3.45;;;1.98;;
10452;SDS011;5274;51.992;8.518;2022-08-19T13:54:50;2.47;;;1.73;;
10452;SDS011;5274;51.992;8.518;2022-08-19T13:57:16;3.28;;;2.13;;
10452;SDS011;5274;51.992;8.518;2022-08-19T13:59:41;3.60;;;2.50;;
10452;SDS011;5274;51.992;8.518;2022-08-19T14:02:07;3.15;;;2.40;;
10452;SDS011;5274;51.992;8.518;2022-08-19T14:04:33;2.22;;;2.00;;
10452;SDS011;5274;51.992;8.518;2022-08-19T14:06:58;3.78;;;2.00;;
10452;SDS011;5274;51.992;8.518;2022-08-19T14:09:24;2.15;;;1.88;;
10452;SDS011;5274;51.992;8.518;2022-08-19T14:11:49;4.65;;;2.20;;
10452;SDS011;5274;51.992;8.518;2022-08-19T14:14:15;2.30;;;2.10;;
10452;SDS011;5274;51.992;8.518;2022-08-19T14:16:41;3.88;;;2.40;;
10452;SDS011;5274;51.992;8.518;2022-08-19T14:19:07;2.17;;;2.03;;
10452;SDS011;5274;51.992;8.518;2022-08-19T14:21:33;2.83;;;2.00;;
10452;SDS011;5274;51.992;8.518;2022-08-19T14:23:59;2.58;;;2.38;;
10452;SDS011;5274;51.992;8.518;2022-08-19T14:26:24;3.03;;;2.50;;
10452;SDS011;5274;51.992;8.518;2022-08-19T14:28:50;3.60;;;2.30;;
10452;SDS011;5274;51.992;8.518;2022-08-19T14:31:17;2.95;;;2.03;;
10452;SDS011;5274;51.992;8.518;2022-08-19T14:33:44;2.20;;;1.73;;
10452;SDS011;5274;51.992;8.518;2022-08-19T14:36:11;1.92;;;1.83;;
10452;SDS011;5274;51.992;8.518;2022-08-19T14:38:36;3.53;;;2.15;;
10452;SDS011;5274;51.992;8.518;2022-08-19T14:41:09;2.08;;;1.88;;
10452;SDS011;5274;51.992;8.518;2022-08-19T14:43:37;2.10;;;1.73;;
10452;SDS011;5274;51.992;8.518;2022-08-19T14:46:03;5.03;;;2.17;;
10452;SDS011;5274;51.992;8.518;2022-08-19T14:48:29;2.40;;;2.20;;
10452;SDS011;5274;51.992;8.518;2022-08-19T14:50:55;6.35;;;2.22;;
10452;SDS011;5274;51.992;8.518;2022-08-19T14:53:21;2.58;;;2.10;;
10452;SDS011;5274;51.992;8.518;2022-08-19T14:55:47;2.50;;;2.30;;
10452;SDS011;5274;51.992;8.518;2022-08-19T14:58:12;3.58;;;2.08;;
10452;SDS011;5274;51.992;8.518;2022-08-19T15:00:38;1.90;;;1.73;;
10452;SDS011;5274;51.992;8.518;2022-08-19T15:03:04;2.92;;;2.08;;
10452;SDS011;5274;51.992;8.518;2022-08-19T15:05:29;2.90;;;2.30;;
10452;SDS011;5274;51.992;8.518;2022-08-19T15:07:55;2.30;;;2.10;;
10452;SDS011;5274;51.992;8.518;2022-08-19T15:10:21;3.33;;;2.25;;